JBU1201 KFLL-KLAX
Flight info
| Callsign | JBU1201 |
|---|---|
| Flight time | 5h 18m |
| Altitude | 28000 |
| Route | BNICE2 DOLIE BAGGS Y290 CIGAR/N0474F300 Y290 LEV J86 JCT/N0471F320 J86 ELP J50 SSO J4 WLVRN ESTWD HLYWD1 |
| Aircraft | A321/M-SDE3FGHIRWY/LB1 |
Departure
| Time | 2026-05-05 10:51 |
|---|---|
| Airport | Fort Lauderdale Hollywood International Airport (KFLL) |
Arrival
| Time | 2026-05-05 16:10 |
|---|---|
| Airport | Los Angeles International Airport (KLAX) |
| Time | Latitude | Longitude | Altitude | Speed | Heading |
|---|---|---|---|---|---|
| 2026-05-05 10:30 | 26.07242 | -80.14617 | 16 ft | 0 kts | 32° |
| 2026-05-05 10:41 | 26.07225 | -80.14629 | 16 ft | 3 kts | 32° |
| 2026-05-05 10:41 | 26.07207 | -80.14645 | 17 ft | 4 kts | 61° |
| 2026-05-05 10:41 | 26.07202 | -80.14671 | 15 ft | 4 kts | 110° |
| 2026-05-05 10:41 | 26.07215 | -80.14697 | 15 ft | 4 kts | 124° |
| 2026-05-05 10:42 | 26.07230 | -80.14748 | 17 ft | 4 kts | 56° |
| 2026-05-05 10:42 | 26.07219 | -80.14756 | 16 ft | 4 kts | 318° |
| 2026-05-05 10:42 | 26.07212 | -80.14733 | 17 ft | 4 kts | 274° |
| 2026-05-05 10:43 | 26.07212 | -80.14722 | 17 ft | 0 kts | 274° |
| 2026-05-05 10:44 | 26.07212 | -80.14724 | 17 ft | 2 kts | 274° |
| 2026-05-05 10:44 | 26.07217 | -80.14755 | 18 ft | 7 kts | 292° |
| 2026-05-05 10:45 | 26.07251 | -80.14815 | 16 ft | 11 kts | 310° |
| 2026-05-05 10:45 | 26.07313 | -80.14852 | 16 ft | 10 kts | 353° |
| 2026-05-05 10:45 | 26.07371 | -80.14888 | 16 ft | 11 kts | 297° |
| 2026-05-05 10:45 | 26.07413 | -80.14961 | 16 ft | 13 kts | 314° |
| 2026-05-05 10:46 | 26.07484 | -80.15037 | 17 ft | 15 kts | 316° |
| 2026-05-05 10:46 | 26.07553 | -80.15118 | 17 ft | 14 kts | 302° |
| 2026-05-05 10:46 | 26.07564 | -80.15226 | 15 ft | 14 kts | 270° |
| 2026-05-05 10:46 | 26.07564 | -80.15335 | 15 ft | 14 kts | 270° |
| 2026-05-05 10:47 | 26.07565 | -80.15443 | 15 ft | 14 kts | 270° |
| 2026-05-05 10:47 | 26.07565 | -80.15551 | 15 ft | 14 kts | 270° |
| 2026-05-05 10:47 | 26.07566 | -80.15657 | 16 ft | 14 kts | 270° |
| 2026-05-05 10:47 | 26.07566 | -80.15761 | 16 ft | 13 kts | 270° |
| 2026-05-05 10:48 | 26.07566 | -80.15862 | 16 ft | 13 kts | 270° |
| 2026-05-05 10:48 | 26.07567 | -80.15962 | 16 ft | 13 kts | 270° |
| 2026-05-05 10:48 | 26.07567 | -80.16060 | 16 ft | 13 kts | 270° |
| 2026-05-05 10:48 | 26.07568 | -80.16157 | 17 ft | 12 kts | 270° |
| 2026-05-05 10:49 | 26.07569 | -80.16252 | 17 ft | 12 kts | 270° |
| 2026-05-05 10:49 | 26.07570 | -80.16347 | 17 ft | 12 kts | 270° |
| 2026-05-05 10:49 | 26.07571 | -80.16442 | 16 ft | 12 kts | 270° |
| 2026-05-05 10:49 | 26.07571 | -80.16536 | 16 ft | 12 kts | 270° |
| 2026-05-05 10:50 | 26.07584 | -80.16627 | 16 ft | 12 kts | 309° |
| 2026-05-05 10:50 | 26.07655 | -80.16643 | 17 ft | 10 kts | 0° |
| 2026-05-05 10:50 | 26.07694 | -80.16594 | 20 ft | 9 kts | 80° |
| 2026-05-05 10:50 | 26.07695 | -80.16506 | 19 ft | 26 kts | 90° |
| 2026-05-05 10:51 | 26.07692 | -80.16025 | 19 ft | 96 kts | 90° |
| 2026-05-05 10:51 | 26.07686 | -80.15053 | 16 ft | 152 kts | 90° |
| 2026-05-05 10:51 | 26.07685 | -80.13758 | 402 ft | 167 kts | 90° |
| 2026-05-05 10:51 | 26.07680 | -80.12485 | 1220 ft | 163 kts | 86° |
| 2026-05-05 10:52 | 26.07729 | -80.11171 | 1664 ft | 181 kts | 83° |
| 2026-05-05 10:52 | 26.08063 | -80.09773 | 1862 ft | 197 kts | 69° |
| 2026-05-05 10:52 | 26.08742 | -80.08366 | 2005 ft | 215 kts | 54° |
| 2026-05-05 10:52 | 26.09833 | -80.07109 | 2104 ft | 238 kts | 37° |
| 2026-05-05 10:53 | 26.11338 | -80.06211 | 2399 ft | 254 kts | 21° |
| 2026-05-05 10:53 | 26.13028 | -80.05539 | 2940 ft | 259 kts | 20° |
| 2026-05-05 10:53 | 26.14781 | -80.05010 | 3475 ft | 263 kts | 5° |
| 2026-05-05 10:53 | 26.16602 | -80.05086 | 4010 ft | 267 kts | 347° |
| 2026-05-05 10:54 | 26.18376 | -80.05711 | 4588 ft | 269 kts | 339° |
| 2026-05-05 10:54 | 26.20145 | -80.06419 | 5155 ft | 271 kts | 335° |
| 2026-05-05 10:54 | 26.21745 | -80.07518 | 5706 ft | 271 kts | 316° |
| 2026-05-05 10:54 | 26.22961 | -80.09123 | 6199 ft | 274 kts | 297° |
| 2026-05-05 10:55 | 26.23734 | -80.11066 | 6726 ft | 275 kts | 289° |
| 2026-05-05 10:55 | 26.24434 | -80.13049 | 7292 ft | 275 kts | 289° |
| 2026-05-05 10:55 | 26.25131 | -80.15012 | 7842 ft | 277 kts | 289° |
| 2026-05-05 10:55 | 26.25620 | -80.17081 | 8366 ft | 277 kts | 277° |
| 2026-05-05 10:56 | 26.25921 | -80.19209 | 8913 ft | 279 kts | 278° |
| 2026-05-05 10:56 | 26.26227 | -80.21357 | 9454 ft | 281 kts | 278° |
| 2026-05-05 10:56 | 26.26534 | -80.23506 | 10013 ft | 282 kts | 278° |
| 2026-05-05 10:56 | 26.26845 | -80.25694 | 10292 ft | 294 kts | 278° |
| 2026-05-05 10:57 | 26.27174 | -80.28008 | 10414 ft | 310 kts | 278° |
| 2026-05-05 10:57 | 26.27520 | -80.30444 | 10538 ft | 325 kts | 278° |
| 2026-05-05 10:57 | 26.27883 | -80.32991 | 10658 ft | 340 kts | 278° |
| 2026-05-05 10:57 | 26.28259 | -80.35625 | 10771 ft | 354 kts | 278° |
| 2026-05-05 10:58 | 26.28659 | -80.38419 | 10900 ft | 368 kts | 278° |
| 2026-05-05 10:58 | 26.29064 | -80.41266 | 11176 ft | 375 kts | 278° |
| 2026-05-05 10:58 | 26.29473 | -80.44145 | 11624 ft | 377 kts | 278° |
| 2026-05-05 10:58 | 26.29877 | -80.46998 | 12090 ft | 379 kts | 278° |
| 2026-05-05 10:59 | 26.30284 | -80.49902 | 12577 ft | 380 kts | 278° |
| 2026-05-05 10:59 | 26.30694 | -80.52823 | 13062 ft | 381 kts | 278° |
| 2026-05-05 10:59 | 26.31107 | -80.55749 | 13508 ft | 383 kts | 278° |
| 2026-05-05 10:59 | 26.31523 | -80.58691 | 13967 ft | 385 kts | 278° |
| 2026-05-05 11:00 | 26.31938 | -80.61645 | 14382 ft | 386 kts | 278° |
| 2026-05-05 11:00 | 26.32353 | -80.64616 | 14817 ft | 388 kts | 278° |
| 2026-05-05 11:00 | 26.32767 | -80.67591 | 15255 ft | 389 kts | 278° |
| 2026-05-05 11:00 | 26.33181 | -80.70568 | 15694 ft | 390 kts | 279° |
| 2026-05-05 11:01 | 26.33846 | -80.73501 | 16089 ft | 392 kts | 288° |
| 2026-05-05 11:01 | 26.34720 | -80.76386 | 16497 ft | 393 kts | 288° |
| 2026-05-05 11:01 | 26.35599 | -80.79287 | 16905 ft | 395 kts | 288° |
| 2026-05-05 11:01 | 26.36478 | -80.82189 | 17299 ft | 396 kts | 288° |
| 2026-05-05 11:02 | 26.37359 | -80.85105 | 17677 ft | 397 kts | 288° |
| 2026-05-05 11:02 | 26.38239 | -80.88032 | 18069 ft | 399 kts | 288° |
| 2026-05-05 11:02 | 26.39110 | -80.90928 | 18405 ft | 400 kts | 288° |
| 2026-05-05 11:02 | 26.40005 | -80.93906 | 18745 ft | 401 kts | 288° |
| 2026-05-05 11:03 | 26.40881 | -80.96823 | 19066 ft | 401 kts | 288° |
| 2026-05-05 11:03 | 26.41765 | -80.99772 | 19382 ft | 402 kts | 288° |
| 2026-05-05 11:03 | 26.42654 | -81.02734 | 19690 ft | 403 kts | 288° |
| 2026-05-05 11:03 | 26.43547 | -81.05703 | 19990 ft | 404 kts | 288° |
| 2026-05-05 11:04 | 26.44442 | -81.08679 | 20283 ft | 405 kts | 288° |
| 2026-05-05 11:04 | 26.45338 | -81.11662 | 20565 ft | 406 kts | 288° |
| 2026-05-05 11:04 | 26.46234 | -81.14654 | 20863 ft | 407 kts | 288° |
| 2026-05-05 11:04 | 26.47128 | -81.17652 | 21150 ft | 408 kts | 288° |
| 2026-05-05 11:05 | 26.48026 | -81.20665 | 21438 ft | 409 kts | 289° |
| 2026-05-05 11:05 | 26.48922 | -81.23671 | 21716 ft | 410 kts | 289° |
| 2026-05-05 11:05 | 26.49822 | -81.26693 | 21984 ft | 411 kts | 289° |
| 2026-05-05 11:05 | 26.50724 | -81.29723 | 22249 ft | 412 kts | 289° |
| 2026-05-05 11:06 | 26.51628 | -81.32761 | 22515 ft | 413 kts | 289° |
| 2026-05-05 11:06 | 26.52534 | -81.35815 | 22778 ft | 414 kts | 289° |
| 2026-05-05 11:06 | 26.53430 | -81.38834 | 23030 ft | 415 kts | 289° |
| 2026-05-05 11:06 | 26.54340 | -81.41894 | 23281 ft | 416 kts | 289° |
| 2026-05-05 11:07 | 26.55255 | -81.44961 | 23524 ft | 417 kts | 289° |
| 2026-05-05 11:07 | 26.56169 | -81.48036 | 23727 ft | 418 kts | 289° |
| 2026-05-05 11:07 | 26.57082 | -81.51122 | 23928 ft | 419 kts | 289° |
| 2026-05-05 11:07 | 26.57997 | -81.54224 | 24130 ft | 420 kts | 289° |
| 2026-05-05 11:08 | 26.58912 | -81.57328 | 24331 ft | 421 kts | 289° |
| 2026-05-05 11:08 | 26.59825 | -81.60433 | 24543 ft | 422 kts | 289° |
| 2026-05-05 11:08 | 26.60747 | -81.63559 | 24751 ft | 423 kts | 289° |
| 2026-05-05 11:08 | 26.61671 | -81.66686 | 24931 ft | 424 kts | 290° |
| 2026-05-05 11:09 | 26.62599 | -81.69826 | 25113 ft | 426 kts | 290° |
| 2026-05-05 11:09 | 26.63521 | -81.72958 | 25463 ft | 424 kts | 290° |
| 2026-05-05 11:09 | 26.64439 | -81.76087 | 25817 ft | 422 kts | 290° |
| 2026-05-05 11:09 | 26.65346 | -81.79189 | 26105 ft | 420 kts | 290° |
| 2026-05-05 11:10 | 26.66255 | -81.82290 | 26405 ft | 419 kts | 290° |
| 2026-05-05 11:10 | 26.67157 | -81.85354 | 26696 ft | 418 kts | 290° |
| 2026-05-05 11:10 | 26.68062 | -81.88440 | 26994 ft | 417 kts | 290° |
| 2026-05-05 11:10 | 26.68961 | -81.91520 | 27283 ft | 416 kts | 290° |
| 2026-05-05 11:11 | 26.69854 | -81.94587 | 27594 ft | 415 kts | 290° |
| 2026-05-05 11:11 | 26.70750 | -81.97660 | 27890 ft | 414 kts | 290° |
| 2026-05-05 11:11 | 26.71641 | -82.00712 | 28182 ft | 413 kts | 290° |
| 2026-05-05 11:11 | 26.72531 | -82.03764 | 28507 ft | 412 kts | 290° |
| 2026-05-05 11:12 | 26.73419 | -82.06809 | 28786 ft | 411 kts | 290° |
| 2026-05-05 11:12 | 26.74303 | -82.09850 | 29067 ft | 411 kts | 290° |
| 2026-05-05 11:12 | 26.75184 | -82.12885 | 29359 ft | 410 kts | 290° |
| 2026-05-05 11:12 | 26.76062 | -82.15914 | 29646 ft | 409 kts | 290° |
| 2026-05-05 11:13 | 26.76938 | -82.18937 | 29935 ft | 408 kts | 290° |
| 2026-05-05 11:13 | 26.78693 | -82.24987 | 30038 ft | 409 kts | 290° |
| 2026-05-05 11:14 | 26.80448 | -82.31044 | 30046 ft | 409 kts | 290° |
| 2026-05-05 11:14 | 26.82201 | -82.37111 | 30035 ft | 409 kts | 290° |
| 2026-05-05 11:15 | 26.83952 | -82.43169 | 30035 ft | 408 kts | 290° |
| 2026-05-05 11:15 | 26.85693 | -82.49221 | 30034 ft | 408 kts | 290° |
| 2026-05-05 11:16 | 26.87420 | -82.55235 | 30039 ft | 408 kts | 290° |
| 2026-05-05 11:16 | 26.89160 | -82.61295 | 30042 ft | 409 kts | 290° |
| 2026-05-05 11:17 | 26.90902 | -82.67358 | 30048 ft | 409 kts | 290° |
| 2026-05-05 11:17 | 26.92641 | -82.73424 | 30049 ft | 409 kts | 290° |
| 2026-05-05 11:18 | 26.94081 | -82.78472 | 30041 ft | 409 kts | 290° |
| 2026-05-05 11:18 | 26.95803 | -82.84546 | 30042 ft | 409 kts | 290° |
| 2026-05-05 11:19 | 26.97525 | -82.90622 | 30049 ft | 409 kts | 290° |
| 2026-05-05 11:19 | 26.99252 | -82.96697 | 30048 ft | 409 kts | 290° |
| 2026-05-05 11:20 | 27.00978 | -83.02773 | 30073 ft | 409 kts | 290° |
| 2026-05-05 11:20 | 27.02696 | -83.08850 | 30063 ft | 409 kts | 290° |
| 2026-05-05 11:21 | 27.04405 | -83.14928 | 30060 ft | 408 kts | 290° |
| 2026-05-05 11:21 | 27.06114 | -83.21003 | 30043 ft | 408 kts | 290° |
| 2026-05-05 11:22 | 27.07823 | -83.27077 | 30057 ft | 408 kts | 290° |
| 2026-05-05 11:22 | 27.09528 | -83.33151 | 30050 ft | 408 kts | 290° |
| 2026-05-05 11:23 | 27.11234 | -83.39233 | 30049 ft | 408 kts | 290° |
| 2026-05-05 11:23 | 27.12936 | -83.45311 | 30042 ft | 408 kts | 290° |
| 2026-05-05 11:24 | 27.14636 | -83.51390 | 30043 ft | 408 kts | 290° |
| 2026-05-05 11:24 | 27.16333 | -83.57473 | 30038 ft | 408 kts | 290° |
| 2026-05-05 11:25 | 27.18019 | -83.63530 | 30042 ft | 409 kts | 290° |
| 2026-05-05 11:25 | 27.19708 | -83.69625 | 30045 ft | 408 kts | 290° |
| 2026-05-05 11:26 | 27.21397 | -83.75710 | 30041 ft | 408 kts | 290° |
| 2026-05-05 11:26 | 27.23084 | -83.81815 | 30043 ft | 409 kts | 290° |
| 2026-05-05 11:27 | 27.24768 | -83.87917 | 30048 ft | 409 kts | 290° |
| 2026-05-05 11:27 | 27.26453 | -83.94017 | 30026 ft | 409 kts | 290° |
| 2026-05-05 11:28 | 27.28126 | -84.00131 | 30028 ft | 409 kts | 290° |
| 2026-05-05 11:28 | 27.29801 | -84.06241 | 30033 ft | 409 kts | 290° |
| 2026-05-05 11:29 | 27.31483 | -84.12351 | 30033 ft | 409 kts | 290° |
| 2026-05-05 11:29 | 27.33164 | -84.18473 | 30034 ft | 409 kts | 290° |
| 2026-05-05 11:30 | 27.34822 | -84.24560 | 30040 ft | 409 kts | 290° |
| 2026-05-05 11:30 | 27.36485 | -84.30684 | 30063 ft | 409 kts | 290° |
| 2026-05-05 11:31 | 27.38150 | -84.36803 | 30064 ft | 409 kts | 290° |
| 2026-05-05 11:31 | 27.39809 | -84.42919 | 30057 ft | 408 kts | 290° |
| 2026-05-05 11:32 | 27.41463 | -84.49035 | 30056 ft | 408 kts | 290° |
| 2026-05-05 11:32 | 27.43115 | -84.55157 | 30054 ft | 408 kts | 290° |
| 2026-05-05 11:33 | 27.44760 | -84.61234 | 30056 ft | 408 kts | 290° |
| 2026-05-05 11:33 | 27.46408 | -84.67350 | 30042 ft | 408 kts | 290° |
| 2026-05-05 11:34 | 27.48050 | -84.73472 | 30040 ft | 409 kts | 290° |
| 2026-05-05 11:34 | 27.49590 | -84.79648 | 30039 ft | 411 kts | 285° |
| 2026-05-05 11:35 | 27.50711 | -84.85971 | 30038 ft | 412 kts | 285° |
| 2026-05-05 11:35 | 27.51829 | -84.92300 | 30045 ft | 412 kts | 285° |
| 2026-05-05 11:36 | 27.52942 | -84.98632 | 30040 ft | 412 kts | 285° |
| 2026-05-05 11:36 | 27.54053 | -85.04967 | 30012 ft | 412 kts | 285° |
| 2026-05-05 11:37 | 27.55165 | -85.11313 | 30009 ft | 413 kts | 285° |
| 2026-05-05 11:37 | 27.56271 | -85.17642 | 30018 ft | 414 kts | 285° |
| 2026-05-05 11:38 | 27.57385 | -85.24019 | 30029 ft | 415 kts | 285° |
| 2026-05-05 11:38 | 27.58497 | -85.30403 | 30031 ft | 415 kts | 285° |
| 2026-05-05 11:39 | 27.59861 | -85.36690 | 30036 ft | 411 kts | 292° |
| 2026-05-05 11:39 | 27.61697 | -85.42813 | 30020 ft | 412 kts | 291° |
| 2026-05-05 11:40 | 27.63536 | -85.48930 | 30023 ft | 413 kts | 292° |
| 2026-05-05 11:40 | 27.65378 | -85.55080 | 30030 ft | 414 kts | 291° |
| 2026-05-05 11:41 | 27.67218 | -85.61242 | 30037 ft | 414 kts | 291° |
| 2026-05-05 11:41 | 27.69058 | -85.67405 | 30038 ft | 415 kts | 291° |
| 2026-05-05 11:42 | 27.70891 | -85.73576 | 30043 ft | 415 kts | 291° |
| 2026-05-05 11:42 | 27.72709 | -85.79709 | 30050 ft | 415 kts | 291° |
| 2026-05-05 11:43 | 27.74547 | -85.85891 | 30046 ft | 415 kts | 291° |
| 2026-05-05 11:43 | 27.76382 | -85.92061 | 30048 ft | 415 kts | 291° |
| 2026-05-05 11:44 | 27.78210 | -85.98245 | 30052 ft | 415 kts | 291° |
| 2026-05-05 11:44 | 27.80032 | -86.04432 | 30046 ft | 415 kts | 291° |
| 2026-05-05 11:45 | 27.81858 | -86.10620 | 30054 ft | 415 kts | 291° |
| 2026-05-05 11:45 | 27.83675 | -86.16813 | 30056 ft | 415 kts | 291° |
| 2026-05-05 11:46 | 27.85488 | -86.23002 | 30041 ft | 416 kts | 291° |
| 2026-05-05 11:46 | 27.87305 | -86.29206 | 30045 ft | 416 kts | 291° |
| 2026-05-05 11:47 | 27.89121 | -86.35416 | 30044 ft | 416 kts | 291° |
| 2026-05-05 11:47 | 27.90933 | -86.41631 | 30043 ft | 416 kts | 291° |
| 2026-05-05 11:48 | 27.93656 | -86.50958 | 30051 ft | 416 kts | 291° |
| 2026-05-05 11:48 | 27.95463 | -86.57180 | 30063 ft | 416 kts | 291° |
| 2026-05-05 11:49 | 27.97259 | -86.63402 | 30053 ft | 416 kts | 291° |
| 2026-05-05 11:49 | 27.99051 | -86.69620 | 30048 ft | 415 kts | 291° |
| 2026-05-05 11:50 | 28.00843 | -86.75834 | 30050 ft | 415 kts | 291° |
| 2026-05-05 11:50 | 28.02666 | -86.82034 | 30058 ft | 415 kts | 291° |
| 2026-05-05 11:51 | 28.04513 | -86.88175 | 30065 ft | 415 kts | 291° |
| 2026-05-05 11:51 | 28.06369 | -86.94360 | 30062 ft | 414 kts | 291° |
| 2026-05-05 11:52 | 28.08196 | -87.00531 | 30054 ft | 413 kts | 291° |
| 2026-05-05 11:52 | 28.10019 | -87.06718 | 30060 ft | 413 kts | 291° |
| 2026-05-05 11:53 | 28.11846 | -87.12887 | 30055 ft | 412 kts | 291° |
| 2026-05-05 11:53 | 28.13653 | -87.19011 | 30056 ft | 412 kts | 291° |
| 2026-05-05 11:54 | 28.15469 | -87.25161 | 30051 ft | 412 kts | 291° |
| 2026-05-05 11:54 | 28.17286 | -87.31326 | 30053 ft | 412 kts | 291° |
| 2026-05-05 11:55 | 28.19096 | -87.37482 | 30052 ft | 411 kts | 291° |
| 2026-05-05 11:55 | 28.20895 | -87.43633 | 30053 ft | 411 kts | 291° |
| 2026-05-05 11:56 | 28.22682 | -87.49776 | 30052 ft | 410 kts | 291° |
| 2026-05-05 11:56 | 28.24477 | -87.55920 | 30049 ft | 410 kts | 291° |
| 2026-05-05 11:57 | 28.25971 | -87.61026 | 30052 ft | 410 kts | 291° |
| 2026-05-05 11:57 | 28.27761 | -87.67171 | 30049 ft | 410 kts | 291° |
| 2026-05-05 11:58 | 28.29541 | -87.73314 | 30038 ft | 410 kts | 291° |
| 2026-05-05 11:58 | 28.31322 | -87.79469 | 30033 ft | 411 kts | 291° |
| 2026-05-05 11:59 | 28.33104 | -87.85631 | 30034 ft | 411 kts | 291° |
| 2026-05-05 11:59 | 28.34885 | -87.91799 | 30043 ft | 411 kts | 291° |
| 2026-05-05 12:00 | 28.36655 | -87.97932 | 30064 ft | 411 kts | 291° |
| 2026-05-05 12:00 | 28.38486 | -88.04061 | 30058 ft | 408 kts | 296° |
| 2026-05-05 12:01 | 28.40803 | -88.09939 | 30048 ft | 407 kts | 296° |
| 2026-05-05 12:01 | 28.43114 | -88.15830 | 30044 ft | 407 kts | 296° |
| 2026-05-05 12:02 | 28.45420 | -88.21715 | 30040 ft | 408 kts | 296° |
| 2026-05-05 12:02 | 28.47714 | -88.27569 | 30043 ft | 408 kts | 296° |
| 2026-05-05 12:03 | 28.50016 | -88.33464 | 30043 ft | 408 kts | 296° |
| 2026-05-05 12:03 | 28.52314 | -88.39355 | 30040 ft | 408 kts | 296° |
| 2026-05-05 12:04 | 28.54614 | -88.45264 | 30041 ft | 408 kts | 296° |
| 2026-05-05 12:04 | 28.56912 | -88.51171 | 30032 ft | 409 kts | 295° |
| 2026-05-05 12:05 | 28.59215 | -88.57088 | 30031 ft | 409 kts | 295° |
| 2026-05-05 12:05 | 28.61510 | -88.63015 | 30034 ft | 409 kts | 295° |
| 2026-05-05 12:06 | 28.63801 | -88.68916 | 30031 ft | 409 kts | 295° |
| 2026-05-05 12:06 | 28.66091 | -88.74855 | 30055 ft | 410 kts | 295° |
| 2026-05-05 12:07 | 28.68385 | -88.80787 | 30048 ft | 409 kts | 295° |
| 2026-05-05 12:07 | 28.70675 | -88.86718 | 30045 ft | 408 kts | 295° |
| 2026-05-05 12:08 | 28.72951 | -88.92649 | 30043 ft | 408 kts | 295° |
| 2026-05-05 12:08 | 28.75213 | -88.98545 | 30046 ft | 408 kts | 295° |
| 2026-05-05 12:09 | 28.77492 | -89.04472 | 30044 ft | 408 kts | 295° |
| 2026-05-05 12:09 | 28.79758 | -89.10396 | 30038 ft | 407 kts | 295° |
| 2026-05-05 12:10 | 28.82020 | -89.16330 | 30037 ft | 407 kts | 295° |
| 2026-05-05 12:10 | 28.84288 | -89.22253 | 30036 ft | 407 kts | 295° |
| 2026-05-05 12:11 | 28.86539 | -89.28146 | 30022 ft | 408 kts | 295° |
| 2026-05-05 12:11 | 28.88800 | -89.34086 | 30026 ft | 408 kts | 295° |
| 2026-05-05 12:12 | 28.91057 | -89.40022 | 30022 ft | 408 kts | 295° |
| 2026-05-05 12:12 | 28.93315 | -89.45975 | 30023 ft | 408 kts | 294° |
| 2026-05-05 12:13 | 28.95551 | -89.51875 | 30024 ft | 408 kts | 294° |
| 2026-05-05 12:13 | 28.97803 | -89.57828 | 30046 ft | 407 kts | 294° |
| 2026-05-05 12:14 | 29.00037 | -89.63753 | 30036 ft | 406 kts | 294° |
| 2026-05-05 12:14 | 29.02278 | -89.69690 | 30031 ft | 406 kts | 294° |
| 2026-05-05 12:15 | 29.04505 | -89.75613 | 30028 ft | 406 kts | 294° |
| 2026-05-05 12:15 | 29.06714 | -89.81506 | 30027 ft | 406 kts | 294° |
| 2026-05-05 12:16 | 29.08939 | -89.87438 | 30025 ft | 405 kts | 294° |
| 2026-05-05 12:16 | 29.11163 | -89.93362 | 30026 ft | 405 kts | 294° |
| 2026-05-05 12:17 | 29.13383 | -89.99287 | 30020 ft | 405 kts | 294° |
| 2026-05-05 12:17 | 29.15596 | -90.05218 | 30008 ft | 405 kts | 294° |
| 2026-05-05 12:18 | 29.17640 | -90.11230 | 30006 ft | 407 kts | 286° |
| 2026-05-05 12:18 | 29.18737 | -90.17576 | 30011 ft | 409 kts | 283° |
| 2026-05-05 12:19 | 29.19817 | -90.23961 | 30009 ft | 409 kts | 284° |
| 2026-05-05 12:19 | 29.20903 | -90.30351 | 30012 ft | 408 kts | 284° |
| 2026-05-05 12:20 | 29.21980 | -90.36735 | 30012 ft | 408 kts | 283° |
| 2026-05-05 12:20 | 29.23046 | -90.43118 | 30006 ft | 408 kts | 283° |
| 2026-05-05 12:21 | 29.24110 | -90.49499 | 29998 ft | 408 kts | 283° |
| 2026-05-05 12:21 | 29.25170 | -90.55832 | 30030 ft | 407 kts | 283° |
| 2026-05-05 12:22 | 29.26225 | -90.62205 | 30017 ft | 407 kts | 283° |
| 2026-05-05 12:22 | 29.27280 | -90.68566 | 30014 ft | 406 kts | 283° |
| 2026-05-05 12:23 | 29.28334 | -90.74915 | 30010 ft | 406 kts | 283° |
| 2026-05-05 12:23 | 29.29384 | -90.81273 | 30003 ft | 406 kts | 283° |
| 2026-05-05 12:24 | 29.30424 | -90.87641 | 30005 ft | 406 kts | 283° |
| 2026-05-05 12:24 | 29.31461 | -90.93997 | 29999 ft | 406 kts | 283° |
| 2026-05-05 12:25 | 29.32501 | -91.00359 | 29997 ft | 406 kts | 283° |
| 2026-05-05 12:25 | 29.33534 | -91.06716 | 29997 ft | 406 kts | 283° |
| 2026-05-05 12:26 | 29.34564 | -91.13078 | 29998 ft | 406 kts | 283° |
| 2026-05-05 12:26 | 29.35590 | -91.19437 | 29976 ft | 405 kts | 283° |
| 2026-05-05 12:27 | 29.36605 | -91.25759 | 29976 ft | 406 kts | 283° |
| 2026-05-05 12:27 | 29.37626 | -91.32120 | 29979 ft | 406 kts | 283° |
| 2026-05-05 12:28 | 29.38651 | -91.38487 | 29973 ft | 405 kts | 283° |
| 2026-05-05 12:28 | 29.39666 | -91.44848 | 29976 ft | 405 kts | 283° |
| 2026-05-05 12:29 | 29.40675 | -91.51220 | 29979 ft | 406 kts | 283° |
| 2026-05-05 12:29 | 29.41683 | -91.57588 | 29980 ft | 406 kts | 283° |
| 2026-05-05 12:30 | 29.42686 | -91.63922 | 29979 ft | 406 kts | 283° |
| 2026-05-05 12:30 | 29.43694 | -91.70300 | 29972 ft | 406 kts | 283° |
| 2026-05-05 12:31 | 29.44700 | -91.76673 | 29975 ft | 406 kts | 282° |
| 2026-05-05 12:31 | 29.45701 | -91.83051 | 29978 ft | 406 kts | 282° |
| 2026-05-05 12:32 | 29.46691 | -91.89442 | 29978 ft | 406 kts | 282° |
| 2026-05-05 12:32 | 29.47678 | -91.95790 | 29971 ft | 406 kts | 282° |
| 2026-05-05 12:33 | 29.48670 | -92.02194 | 29973 ft | 407 kts | 282° |
| 2026-05-05 12:33 | 29.49660 | -92.08592 | 29974 ft | 406 kts | 282° |
| 2026-05-05 12:34 | 29.50645 | -92.14981 | 29971 ft | 406 kts | 282° |
| 2026-05-05 12:34 | 29.51621 | -92.21333 | 29969 ft | 406 kts | 282° |
| 2026-05-05 12:35 | 29.52598 | -92.27719 | 29992 ft | 406 kts | 282° |
| 2026-05-05 12:35 | 29.53567 | -92.34097 | 29976 ft | 404 kts | 282° |
| 2026-05-05 12:36 | 29.54529 | -92.40460 | 29973 ft | 403 kts | 282° |
| 2026-05-05 12:36 | 29.55488 | -92.46776 | 29969 ft | 403 kts | 282° |
| 2026-05-05 12:37 | 29.56454 | -92.53115 | 29968 ft | 403 kts | 282° |
| 2026-05-05 12:37 | 29.57409 | -92.59455 | 29965 ft | 403 kts | 282° |
| 2026-05-05 12:38 | 29.58355 | -92.65797 | 29962 ft | 403 kts | 282° |
| 2026-05-05 12:38 | 29.59299 | -92.72150 | 29957 ft | 403 kts | 282° |
| 2026-05-05 12:39 | 29.60085 | -92.77428 | 29958 ft | 403 kts | 282° |
| 2026-05-05 12:39 | 29.61037 | -92.83793 | 29956 ft | 403 kts | 282° |
| 2026-05-05 12:40 | 29.61975 | -92.90149 | 29955 ft | 403 kts | 282° |
| 2026-05-05 12:40 | 29.62908 | -92.96511 | 29959 ft | 404 kts | 282° |
| 2026-05-05 12:41 | 29.63841 | -93.02836 | 29958 ft | 404 kts | 282° |
| 2026-05-05 12:41 | 29.64780 | -93.09208 | 29951 ft | 404 kts | 281° |
| 2026-05-05 12:42 | 29.65701 | -93.15581 | 29952 ft | 404 kts | 281° |
| 2026-05-05 12:42 | 29.66629 | -93.21956 | 29953 ft | 404 kts | 281° |
| 2026-05-05 12:43 | 29.67559 | -93.28334 | 29952 ft | 404 kts | 281° |
| 2026-05-05 12:43 | 29.68482 | -93.34723 | 29949 ft | 404 kts | 281° |
| 2026-05-05 12:44 | 29.69389 | -93.41077 | 29949 ft | 404 kts | 281° |
| 2026-05-05 12:44 | 29.70306 | -93.47475 | 29953 ft | 404 kts | 281° |
| 2026-05-05 12:45 | 29.71219 | -93.53865 | 29943 ft | 404 kts | 281° |
| 2026-05-05 12:45 | 29.72123 | -93.60212 | 29941 ft | 404 kts | 281° |
| 2026-05-05 12:46 | 29.73024 | -93.66598 | 29943 ft | 404 kts | 281° |
| 2026-05-05 12:46 | 29.73929 | -93.72998 | 29942 ft | 404 kts | 281° |
| 2026-05-05 12:47 | 29.74828 | -93.79347 | 29937 ft | 404 kts | 281° |
| 2026-05-05 12:47 | 29.75724 | -93.85734 | 29918 ft | 404 kts | 281° |
| 2026-05-05 12:48 | 29.76619 | -93.92123 | 29918 ft | 404 kts | 281° |
| 2026-05-05 12:48 | 29.77509 | -93.98511 | 29934 ft | 404 kts | 281° |
| 2026-05-05 12:49 | 29.78389 | -94.04893 | 29929 ft | 403 kts | 281° |
| 2026-05-05 12:49 | 29.79267 | -94.11254 | 29927 ft | 402 kts | 281° |
| 2026-05-05 12:50 | 29.80142 | -94.17608 | 29920 ft | 401 kts | 281° |
| 2026-05-05 12:50 | 29.81012 | -94.23919 | 29917 ft | 401 kts | 281° |
| 2026-05-05 12:51 | 29.81884 | -94.30272 | 29916 ft | 402 kts | 281° |
| 2026-05-05 12:51 | 29.82749 | -94.36634 | 29914 ft | 401 kts | 281° |
| 2026-05-05 12:52 | 29.83613 | -94.42994 | 29915 ft | 401 kts | 281° |
| 2026-05-05 12:52 | 29.84474 | -94.49344 | 29911 ft | 401 kts | 281° |
| 2026-05-05 12:53 | 29.85338 | -94.55696 | 29910 ft | 401 kts | 281° |
| 2026-05-05 12:53 | 29.86188 | -94.62008 | 29897 ft | 402 kts | 281° |
| 2026-05-05 12:54 | 29.87457 | -94.71553 | 29900 ft | 401 kts | 281° |
| 2026-05-05 12:55 | 29.88304 | -94.77916 | 29905 ft | 401 kts | 281° |
| 2026-05-05 12:55 | 29.89144 | -94.84270 | 29905 ft | 401 kts | 281° |
| 2026-05-05 12:56 | 29.89984 | -94.90621 | 29901 ft | 401 kts | 281° |
| 2026-05-05 12:56 | 29.90807 | -94.96937 | 29905 ft | 400 kts | 280° |
| 2026-05-05 12:57 | 29.91633 | -95.03271 | 29903 ft | 399 kts | 280° |
| 2026-05-05 12:57 | 29.92464 | -95.09590 | 29914 ft | 398 kts | 280° |
| 2026-05-05 12:58 | 29.93284 | -95.15890 | 29908 ft | 397 kts | 280° |
| 2026-05-05 12:58 | 29.94101 | -95.22181 | 29909 ft | 397 kts | 280° |
| 2026-05-05 12:59 | 29.94906 | -95.28471 | 29906 ft | 396 kts | 280° |
| 2026-05-05 12:59 | 29.95705 | -95.34720 | 29895 ft | 396 kts | 279° |
| 2026-05-05 13:00 | 29.97153 | -95.44059 | 29910 ft | 393 kts | 281° |
| 2026-05-05 13:01 | 29.99206 | -95.56411 | 29919 ft | 392 kts | 281° |
| 2026-05-05 13:01 | 30.00183 | -95.62578 | 29901 ft | 388 kts | 281° |
| 2026-05-05 13:02 | 30.01151 | -95.68687 | 29873 ft | 387 kts | 281° |
| 2026-05-05 13:02 | 30.02126 | -95.74801 | 29848 ft | 387 kts | 281° |
| 2026-05-05 13:03 | 30.03093 | -95.80928 | 29826 ft | 389 kts | 281° |
| 2026-05-05 13:03 | 30.04057 | -95.87083 | 29818 ft | 390 kts | 281° |
| 2026-05-05 13:04 | 30.05016 | -95.93214 | 29819 ft | 390 kts | 281° |
| 2026-05-05 13:04 | 30.05980 | -95.99379 | 29784 ft | 390 kts | 281° |
| 2026-05-05 13:05 | 30.06946 | -96.05555 | 29768 ft | 391 kts | 281° |
| 2026-05-05 13:05 | 30.07909 | -96.11736 | 29710 ft | 391 kts | 280° |
| 2026-05-05 13:06 | 30.08858 | -96.17879 | 29690 ft | 392 kts | 280° |
| 2026-05-05 13:06 | 30.09816 | -96.24084 | 29704 ft | 392 kts | 280° |
| 2026-05-05 13:07 | 30.10772 | -96.30288 | 29708 ft | 392 kts | 280° |
| 2026-05-05 13:07 | 30.11724 | -96.36497 | 29708 ft | 393 kts | 280° |
| 2026-05-05 13:08 | 30.12669 | -96.42711 | 29729 ft | 393 kts | 280° |
| 2026-05-05 13:08 | 30.13616 | -96.48893 | 29709 ft | 393 kts | 280° |
| 2026-05-05 13:09 | 30.14563 | -96.55117 | 29727 ft | 394 kts | 280° |
| 2026-05-05 13:09 | 30.15507 | -96.61359 | 29754 ft | 394 kts | 280° |
| 2026-05-05 13:10 | 30.16451 | -96.67603 | 29795 ft | 395 kts | 280° |
| 2026-05-05 13:10 | 30.17393 | -96.73856 | 29841 ft | 395 kts | 280° |
| 2026-05-05 13:11 | 30.18337 | -96.80113 | 29875 ft | 395 kts | 280° |
| 2026-05-05 13:11 | 30.19271 | -96.86373 | 29918 ft | 395 kts | 279° |
| 2026-05-05 13:12 | 30.20195 | -96.92630 | 29920 ft | 394 kts | 279° |
| 2026-05-05 13:12 | 30.21120 | -96.98878 | 29914 ft | 394 kts | 279° |
| 2026-05-05 13:13 | 30.22040 | -97.05074 | 29935 ft | 393 kts | 279° |
| 2026-05-05 13:13 | 30.22963 | -97.11294 | 29916 ft | 392 kts | 279° |
| 2026-05-05 13:14 | 30.23878 | -97.17517 | 29839 ft | 392 kts | 279° |
| 2026-05-05 13:14 | 30.24787 | -97.23732 | 29834 ft | 391 kts | 279° |
| 2026-05-05 13:15 | 30.25692 | -97.29945 | 29846 ft | 391 kts | 279° |
| 2026-05-05 13:15 | 30.26593 | -97.36151 | 29844 ft | 391 kts | 279° |
| 2026-05-05 13:16 | 30.27487 | -97.42321 | 29844 ft | 391 kts | 279° |
| 2026-05-05 13:16 | 30.28381 | -97.48530 | 29844 ft | 391 kts | 279° |
| 2026-05-05 13:17 | 30.29274 | -97.54740 | 29844 ft | 391 kts | 279° |
| 2026-05-05 13:17 | 30.30166 | -97.60960 | 29852 ft | 391 kts | 279° |
| 2026-05-05 13:18 | 30.31051 | -97.67168 | 29852 ft | 391 kts | 279° |
| 2026-05-05 13:18 | 30.31934 | -97.73350 | 29852 ft | 391 kts | 279° |
| 2026-05-05 13:19 | 30.32817 | -97.79575 | 29853 ft | 391 kts | 279° |
| 2026-05-05 13:19 | 30.33691 | -97.85794 | 29897 ft | 391 kts | 279° |
| 2026-05-05 13:20 | 30.34564 | -97.92010 | 29901 ft | 391 kts | 279° |
| 2026-05-05 13:20 | 30.35433 | -97.98234 | 29898 ft | 391 kts | 278° |
| 2026-05-05 13:21 | 30.36310 | -98.04451 | 29894 ft | 391 kts | 278° |
| 2026-05-05 13:21 | 30.37178 | -98.10637 | 29892 ft | 392 kts | 278° |
| 2026-05-05 13:22 | 30.38041 | -98.16865 | 29882 ft | 392 kts | 278° |
| 2026-05-05 13:22 | 30.38901 | -98.23086 | 29871 ft | 391 kts | 278° |
| 2026-05-05 13:23 | 30.39756 | -98.29321 | 29880 ft | 391 kts | 278° |
| 2026-05-05 13:23 | 30.40462 | -98.34498 | 29880 ft | 391 kts | 278° |
| 2026-05-05 13:24 | 30.41319 | -98.40715 | 29879 ft | 391 kts | 278° |
| 2026-05-05 13:24 | 30.42177 | -98.46939 | 29833 ft | 391 kts | 278° |
| 2026-05-05 13:25 | 30.43016 | -98.53168 | 29829 ft | 391 kts | 278° |
| 2026-05-05 13:25 | 30.43857 | -98.59401 | 29829 ft | 391 kts | 278° |
| 2026-05-05 13:26 | 30.44701 | -98.65627 | 29833 ft | 391 kts | 278° |
| 2026-05-05 13:26 | 30.45541 | -98.71855 | 29836 ft | 391 kts | 277° |
| 2026-05-05 13:27 | 30.46375 | -98.78085 | 29839 ft | 391 kts | 277° |
| 2026-05-05 13:27 | 30.47204 | -98.84312 | 29833 ft | 391 kts | 277° |
| 2026-05-05 13:28 | 30.48032 | -98.90536 | 29832 ft | 390 kts | 277° |
| 2026-05-05 13:28 | 30.48849 | -98.96720 | 29826 ft | 390 kts | 277° |
| 2026-05-05 13:29 | 30.49668 | -99.02936 | 29824 ft | 390 kts | 277° |
| 2026-05-05 13:29 | 30.50489 | -99.09153 | 29832 ft | 390 kts | 277° |
| 2026-05-05 13:30 | 30.51307 | -99.15385 | 29828 ft | 390 kts | 277° |
| 2026-05-05 13:30 | 30.52123 | -99.21612 | 29828 ft | 391 kts | 277° |
| 2026-05-05 13:31 | 30.52934 | -99.27843 | 29833 ft | 391 kts | 277° |
| 2026-05-05 13:31 | 30.53737 | -99.34077 | 29833 ft | 391 kts | 277° |
| 2026-05-05 13:32 | 30.54536 | -99.40311 | 29845 ft | 391 kts | 277° |
| 2026-05-05 13:32 | 30.55337 | -99.46543 | 29860 ft | 390 kts | 276° |
| 2026-05-05 13:33 | 30.56133 | -99.52737 | 29874 ft | 390 kts | 276° |
| 2026-05-05 13:33 | 30.56931 | -99.58966 | 29882 ft | 390 kts | 276° |
| 2026-05-05 13:34 | 30.57724 | -99.65190 | 29887 ft | 390 kts | 276° |
| 2026-05-05 13:34 | 30.58508 | -99.71415 | 29895 ft | 390 kts | 276° |
| 2026-05-05 13:35 | 30.59286 | -99.77646 | 29912 ft | 390 kts | 276° |
| 2026-05-05 13:35 | 30.60070 | -99.83868 | 29911 ft | 390 kts | 276° |
| 2026-05-05 13:36 | 30.60853 | -99.90110 | 29899 ft | 390 kts | 276° |
| 2026-05-05 13:36 | 30.61624 | -99.96326 | 29882 ft | 389 kts | 276° |
| 2026-05-05 13:37 | 30.62389 | -100.02551 | 29864 ft | 389 kts | 276° |
| 2026-05-05 13:37 | 30.63145 | -100.08769 | 29856 ft | 389 kts | 276° |
| 2026-05-05 13:38 | 30.63898 | -100.14948 | 29841 ft | 389 kts | 276° |
| 2026-05-05 13:38 | 30.64657 | -100.21164 | 29839 ft | 389 kts | 275° |
| 2026-05-05 13:39 | 30.65417 | -100.27426 | 30024 ft | 393 kts | 275° |
| 2026-05-05 13:39 | 30.65799 | -100.30576 | 30286 ft | 393 kts | 275° |
| 2026-05-05 13:39 | 30.66178 | -100.33715 | 30605 ft | 392 kts | 275° |
| 2026-05-05 13:40 | 30.66554 | -100.36845 | 30908 ft | 391 kts | 275° |
| 2026-05-05 13:40 | 30.66926 | -100.39965 | 31220 ft | 389 kts | 275° |
| 2026-05-05 13:40 | 30.67296 | -100.43073 | 31525 ft | 388 kts | 275° |
| 2026-05-05 13:40 | 30.67666 | -100.46170 | 31817 ft | 387 kts | 275° |
| 2026-05-05 13:41 | 30.68405 | -100.52360 | 31929 ft | 386 kts | 275° |
| 2026-05-05 13:41 | 30.69138 | -100.58528 | 31934 ft | 385 kts | 274° |
| 2026-05-05 13:42 | 30.69868 | -100.64707 | 31944 ft | 386 kts | 275° |
| 2026-05-05 13:42 | 30.70596 | -100.70854 | 31936 ft | 386 kts | 274° |
| 2026-05-05 13:43 | 30.71321 | -100.77043 | 31925 ft | 386 kts | 274° |
| 2026-05-05 13:43 | 30.72041 | -100.83230 | 31911 ft | 386 kts | 274° |
| 2026-05-05 13:44 | 30.72763 | -100.89426 | 31900 ft | 386 kts | 274° |
| 2026-05-05 13:44 | 30.73485 | -100.95620 | 31910 ft | 386 kts | 274° |
| 2026-05-05 13:45 | 30.74198 | -101.01778 | 31928 ft | 387 kts | 274° |
| 2026-05-05 13:45 | 30.74906 | -101.07981 | 31948 ft | 387 kts | 274° |
| 2026-05-05 13:46 | 30.75614 | -101.14193 | 31953 ft | 387 kts | 274° |
| 2026-05-05 13:46 | 30.76314 | -101.20356 | 31981 ft | 387 kts | 274° |
| 2026-05-05 13:47 | 30.77019 | -101.26545 | 31879 ft | 386 kts | 274° |
| 2026-05-05 13:47 | 30.77716 | -101.32720 | 31882 ft | 386 kts | 274° |
| 2026-05-05 13:48 | 30.78413 | -101.38923 | 31878 ft | 386 kts | 274° |
| 2026-05-05 13:48 | 30.79110 | -101.45118 | 31872 ft | 386 kts | 274° |
| 2026-05-05 13:49 | 30.79799 | -101.51322 | 31874 ft | 387 kts | 273° |
| 2026-05-05 13:49 | 30.80483 | -101.57532 | 31873 ft | 387 kts | 274° |
| 2026-05-05 13:50 | 30.81161 | -101.63696 | 31876 ft | 386 kts | 274° |
| 2026-05-05 13:50 | 30.81848 | -101.69896 | 31869 ft | 386 kts | 273° |
| 2026-05-05 13:51 | 30.82529 | -101.76101 | 31865 ft | 387 kts | 273° |
| 2026-05-05 13:51 | 30.83208 | -101.82314 | 31867 ft | 387 kts | 273° |
| 2026-05-05 13:52 | 30.83883 | -101.88545 | 31868 ft | 387 kts | 273° |
| 2026-05-05 13:52 | 30.84544 | -101.94729 | 31868 ft | 387 kts | 273° |
| 2026-05-05 13:53 | 30.85217 | -102.00961 | 31872 ft | 388 kts | 273° |
| 2026-05-05 13:53 | 30.85886 | -102.07192 | 31872 ft | 388 kts | 273° |
| 2026-05-05 13:54 | 30.86549 | -102.13427 | 31872 ft | 388 kts | 273° |
| 2026-05-05 13:54 | 30.87210 | -102.19671 | 31872 ft | 388 kts | 273° |
| 2026-05-05 13:55 | 30.87867 | -102.25871 | 31876 ft | 388 kts | 273° |
| 2026-05-05 13:55 | 30.88524 | -102.32108 | 31872 ft | 387 kts | 272° |
| 2026-05-05 13:56 | 30.89176 | -102.38349 | 31876 ft | 387 kts | 272° |
| 2026-05-05 13:56 | 30.89815 | -102.44539 | 31878 ft | 387 kts | 272° |
| 2026-05-05 13:57 | 30.90461 | -102.50773 | 31874 ft | 387 kts | 272° |
| 2026-05-05 13:57 | 30.91103 | -102.56997 | 31907 ft | 386 kts | 272° |
| 2026-05-05 13:58 | 30.91744 | -102.63200 | 31896 ft | 385 kts | 272° |
| 2026-05-05 13:58 | 30.92375 | -102.69353 | 31902 ft | 385 kts | 272° |
| 2026-05-05 13:59 | 30.93310 | -102.78639 | 31912 ft | 385 kts | 272° |
| 2026-05-05 14:00 | 30.94140 | -102.86881 | 31860 ft | 385 kts | 272° |
| 2026-05-05 14:00 | 30.94868 | -102.94122 | 31868 ft | 385 kts | 272° |
| 2026-05-05 14:01 | 30.95947 | -103.00261 | 31867 ft | 392 kts | 281° |
| 2026-05-05 14:01 | 30.97626 | -103.06311 | 31863 ft | 392 kts | 281° |
| 2026-05-05 14:02 | 30.99302 | -103.12365 | 31858 ft | 392 kts | 281° |
| 2026-05-05 14:02 | 31.00966 | -103.18415 | 31858 ft | 392 kts | 281° |
| 2026-05-05 14:03 | 31.02617 | -103.24445 | 31859 ft | 393 kts | 281° |
| 2026-05-05 14:03 | 31.04274 | -103.30515 | 31859 ft | 393 kts | 281° |
| 2026-05-05 14:04 | 31.05933 | -103.36587 | 31861 ft | 393 kts | 281° |
| 2026-05-05 14:04 | 31.07311 | -103.41638 | 31871 ft | 393 kts | 281° |
| 2026-05-05 14:05 | 31.08969 | -103.47721 | 31921 ft | 393 kts | 281° |
| 2026-05-05 14:05 | 31.10623 | -103.53808 | 31911 ft | 394 kts | 281° |
| 2026-05-05 14:06 | 31.12273 | -103.59901 | 31905 ft | 394 kts | 281° |
| 2026-05-05 14:06 | 31.13925 | -103.65999 | 31904 ft | 393 kts | 281° |
| 2026-05-05 14:07 | 31.15567 | -103.72094 | 31899 ft | 394 kts | 281° |
| 2026-05-05 14:07 | 31.17206 | -103.78186 | 31891 ft | 394 kts | 281° |
| 2026-05-05 14:08 | 31.18842 | -103.84256 | 31892 ft | 394 kts | 281° |
| 2026-05-05 14:08 | 31.20481 | -103.90369 | 31847 ft | 395 kts | 280° |
| 2026-05-05 14:09 | 31.22118 | -103.96503 | 31858 ft | 396 kts | 280° |
| 2026-05-05 14:09 | 31.23761 | -104.02652 | 31862 ft | 397 kts | 280° |
| 2026-05-05 14:10 | 31.25408 | -104.08808 | 31878 ft | 397 kts | 280° |
| 2026-05-05 14:10 | 31.27048 | -104.14976 | 31883 ft | 397 kts | 280° |
| 2026-05-05 14:11 | 31.28680 | -104.21139 | 31896 ft | 395 kts | 280° |
| 2026-05-05 14:11 | 31.30300 | -104.27253 | 31914 ft | 393 kts | 279° |
| 2026-05-05 14:12 | 31.31910 | -104.33351 | 31910 ft | 392 kts | 279° |
| 2026-05-05 14:12 | 31.33517 | -104.39445 | 31912 ft | 392 kts | 279° |
| 2026-05-05 14:13 | 31.35118 | -104.45535 | 31903 ft | 391 kts | 279° |
| 2026-05-05 14:13 | 31.36705 | -104.51580 | 31900 ft | 391 kts | 279° |
| 2026-05-05 14:14 | 31.38303 | -104.57672 | 31899 ft | 391 kts | 279° |
| 2026-05-05 14:14 | 31.39897 | -104.63758 | 31894 ft | 391 kts | 279° |
| 2026-05-05 14:15 | 31.41484 | -104.69845 | 31903 ft | 391 kts | 279° |
| 2026-05-05 14:15 | 31.43063 | -104.75931 | 31903 ft | 391 kts | 279° |
| 2026-05-05 14:16 | 31.44651 | -104.82023 | 31897 ft | 391 kts | 279° |
| 2026-05-05 14:16 | 31.46237 | -104.88121 | 31897 ft | 392 kts | 279° |
| 2026-05-05 14:17 | 31.47813 | -104.94229 | 31939 ft | 391 kts | 279° |
| 2026-05-05 14:17 | 31.49382 | -105.00325 | 31927 ft | 391 kts | 279° |
| 2026-05-05 14:18 | 31.50958 | -105.06436 | 31913 ft | 391 kts | 279° |
| 2026-05-05 14:18 | 31.52529 | -105.12540 | 31917 ft | 391 kts | 278° |
| 2026-05-05 14:19 | 31.54075 | -105.18606 | 31915 ft | 391 kts | 278° |
| 2026-05-05 14:19 | 31.55624 | -105.24671 | 31919 ft | 391 kts | 279° |
| 2026-05-05 14:20 | 31.57189 | -105.30782 | 31928 ft | 391 kts | 278° |
| 2026-05-05 14:20 | 31.58754 | -105.36902 | 31919 ft | 391 kts | 278° |
| 2026-05-05 14:21 | 31.60314 | -105.43022 | 31915 ft | 391 kts | 278° |
| 2026-05-05 14:21 | 31.61863 | -105.49150 | 31912 ft | 391 kts | 278° |
| 2026-05-05 14:22 | 31.63410 | -105.55271 | 31912 ft | 391 kts | 278° |
| 2026-05-05 14:22 | 31.64955 | -105.61387 | 31931 ft | 391 kts | 278° |
| 2026-05-05 14:23 | 31.66503 | -105.67521 | 31916 ft | 391 kts | 278° |
| 2026-05-05 14:23 | 31.68046 | -105.73661 | 31907 ft | 392 kts | 278° |
| 2026-05-05 14:24 | 31.69582 | -105.79806 | 31908 ft | 392 kts | 277° |
| 2026-05-05 14:24 | 31.71118 | -105.85948 | 31900 ft | 392 kts | 278° |
| 2026-05-05 14:25 | 31.72660 | -105.92098 | 31892 ft | 392 kts | 277° |
| 2026-05-05 14:25 | 31.74188 | -105.98244 | 31906 ft | 392 kts | 277° |
| 2026-05-05 14:26 | 31.75705 | -106.04362 | 31938 ft | 392 kts | 277° |
| 2026-05-05 14:26 | 31.77226 | -106.10519 | 31961 ft | 392 kts | 277° |
| 2026-05-05 14:27 | 31.78752 | -106.16676 | 31983 ft | 392 kts | 277° |
| 2026-05-05 14:27 | 31.80277 | -106.22831 | 32005 ft | 392 kts | 277° |
| 2026-05-05 14:28 | 31.81644 | -106.29008 | 32021 ft | 384 kts | 270° |
| 2026-05-05 14:28 | 31.82142 | -106.35221 | 32068 ft | 381 kts | 267° |
| 2026-05-05 14:29 | 31.82600 | -106.41435 | 32058 ft | 381 kts | 267° |
| 2026-05-05 14:29 | 31.83062 | -106.47644 | 32048 ft | 381 kts | 268° |
| 2026-05-05 14:30 | 31.83522 | -106.53827 | 32021 ft | 382 kts | 267° |
| 2026-05-05 14:30 | 31.83983 | -106.60052 | 32058 ft | 382 kts | 267° |
| 2026-05-05 14:31 | 31.84440 | -106.66274 | 32054 ft | 382 kts | 267° |
| 2026-05-05 14:31 | 31.84899 | -106.72495 | 32052 ft | 382 kts | 267° |
| 2026-05-05 14:32 | 31.85355 | -106.78730 | 32051 ft | 382 kts | 267° |
| 2026-05-05 14:32 | 31.85797 | -106.84956 | 32024 ft | 382 kts | 267° |
| 2026-05-05 14:33 | 31.86017 | -106.88073 | 31891 ft | 382 kts | 267° |
| 2026-05-05 14:33 | 31.86239 | -106.91205 | 31895 ft | 382 kts | 267° |
| 2026-05-05 14:33 | 31.86687 | -106.97443 | 31903 ft | 383 kts | 267° |
| 2026-05-05 14:34 | 31.87133 | -107.03679 | 31903 ft | 383 kts | 267° |
| 2026-05-05 14:34 | 31.87570 | -107.09922 | 31917 ft | 383 kts | 266° |
| 2026-05-05 14:35 | 31.88000 | -107.16167 | 31904 ft | 383 kts | 266° |
| 2026-05-05 14:35 | 31.88428 | -107.22381 | 31912 ft | 383 kts | 266° |
| 2026-05-05 14:36 | 31.88855 | -107.28634 | 31909 ft | 383 kts | 266° |
| 2026-05-05 14:36 | 31.89281 | -107.34888 | 31912 ft | 383 kts | 266° |
| 2026-05-05 14:37 | 31.89706 | -107.41149 | 31925 ft | 383 kts | 266° |
| 2026-05-05 14:37 | 31.90130 | -107.47401 | 31922 ft | 383 kts | 266° |
| 2026-05-05 14:38 | 31.90547 | -107.53651 | 31922 ft | 383 kts | 266° |
| 2026-05-05 14:38 | 31.90957 | -107.59898 | 31925 ft | 383 kts | 266° |
| 2026-05-05 14:39 | 31.91367 | -107.66091 | 31917 ft | 380 kts | 266° |
| 2026-05-05 14:39 | 31.91771 | -107.72284 | 31917 ft | 380 kts | 266° |
| 2026-05-05 14:40 | 31.92298 | -107.78498 | 31930 ft | 388 kts | 273° |
| 2026-05-05 14:40 | 31.93759 | -107.84699 | 31919 ft | 393 kts | 276° |
| 2026-05-05 14:41 | 31.95262 | -107.90895 | 31919 ft | 394 kts | 275° |
| 2026-05-05 14:41 | 31.96750 | -107.97102 | 31913 ft | 394 kts | 275° |
| 2026-05-05 14:42 | 31.98231 | -108.03315 | 31915 ft | 394 kts | 275° |
| 2026-05-05 14:42 | 31.99706 | -108.09495 | 31915 ft | 394 kts | 275° |
| 2026-05-05 14:43 | 32.01190 | -108.15719 | 31913 ft | 394 kts | 275° |
| 2026-05-05 14:43 | 32.02666 | -108.21937 | 31915 ft | 394 kts | 275° |
| 2026-05-05 14:44 | 32.04138 | -108.28154 | 31915 ft | 394 kts | 275° |
| 2026-05-05 14:44 | 32.05364 | -108.33334 | 31914 ft | 394 kts | 275° |
| 2026-05-05 14:45 | 32.06830 | -108.39556 | 31912 ft | 394 kts | 275° |
| 2026-05-05 14:45 | 32.08291 | -108.45775 | 31931 ft | 393 kts | 275° |
| 2026-05-05 14:46 | 32.09748 | -108.51969 | 31954 ft | 392 kts | 275° |
| 2026-05-05 14:46 | 32.11197 | -108.58170 | 31977 ft | 392 kts | 275° |
| 2026-05-05 14:47 | 32.12646 | -108.64358 | 31996 ft | 391 kts | 275° |
| 2026-05-05 14:47 | 32.14088 | -108.70546 | 32004 ft | 391 kts | 275° |
| 2026-05-05 14:48 | 32.15511 | -108.76691 | 31886 ft | 391 kts | 275° |
| 2026-05-05 14:48 | 32.16944 | -108.82874 | 31900 ft | 390 kts | 275° |
| 2026-05-05 14:49 | 32.18379 | -108.89045 | 31900 ft | 389 kts | 275° |
| 2026-05-05 14:49 | 32.19805 | -108.95213 | 31899 ft | 389 kts | 275° |
| 2026-05-05 14:50 | 32.21219 | -109.01369 | 31893 ft | 389 kts | 275° |
| 2026-05-05 14:50 | 32.22634 | -109.07538 | 31889 ft | 388 kts | 275° |
| 2026-05-05 14:51 | 32.24050 | -109.13682 | 31904 ft | 388 kts | 275° |
| 2026-05-05 14:51 | 32.25455 | -109.19844 | 31890 ft | 389 kts | 275° |
| 2026-05-05 14:52 | 32.26880 | -109.26016 | 31885 ft | 393 kts | 277° |
| 2026-05-05 14:52 | 32.28934 | -109.32050 | 31884 ft | 400 kts | 281° |
| 2026-05-05 14:53 | 32.31070 | -109.38130 | 31883 ft | 400 kts | 281° |
| 2026-05-05 14:53 | 32.33198 | -109.44204 | 31883 ft | 400 kts | 281° |
| 2026-05-05 14:54 | 32.35320 | -109.50282 | 31902 ft | 400 kts | 281° |
| 2026-05-05 14:54 | 32.37437 | -109.56376 | 31896 ft | 400 kts | 281° |
| 2026-05-05 14:55 | 32.39549 | -109.62461 | 31916 ft | 400 kts | 281° |
| 2026-05-05 14:55 | 32.41666 | -109.68562 | 31904 ft | 401 kts | 281° |
| 2026-05-05 14:56 | 32.43787 | -109.74672 | 31891 ft | 402 kts | 281° |
| 2026-05-05 14:56 | 32.45898 | -109.80751 | 31919 ft | 401 kts | 281° |
| 2026-05-05 14:57 | 32.48008 | -109.86867 | 31914 ft | 401 kts | 281° |
| 2026-05-05 14:57 | 32.50122 | -109.93009 | 31915 ft | 400 kts | 281° |
| 2026-05-05 14:58 | 32.52210 | -109.99074 | 31935 ft | 400 kts | 281° |
| 2026-05-05 14:58 | 32.54301 | -110.05174 | 31933 ft | 399 kts | 281° |
| 2026-05-05 14:59 | 32.56403 | -110.11314 | 31985 ft | 399 kts | 281° |
| 2026-05-05 14:59 | 32.58470 | -110.17370 | 31968 ft | 399 kts | 280° |
| 2026-05-05 15:00 | 32.60212 | -110.22481 | 31970 ft | 399 kts | 280° |
| 2026-05-05 15:00 | 32.62622 | -110.29569 | 31967 ft | 399 kts | 281° |
| 2026-05-05 15:01 | 32.64705 | -110.35685 | 31955 ft | 399 kts | 280° |
| 2026-05-05 15:01 | 32.66779 | -110.41783 | 31941 ft | 399 kts | 280° |
| 2026-05-05 15:02 | 32.68854 | -110.47908 | 31982 ft | 400 kts | 280° |
| 2026-05-05 15:02 | 32.70926 | -110.54033 | 31959 ft | 400 kts | 280° |
| 2026-05-05 15:03 | 32.72989 | -110.60160 | 31958 ft | 399 kts | 280° |
| 2026-05-05 15:03 | 32.75037 | -110.66258 | 31985 ft | 399 kts | 280° |
| 2026-05-05 15:04 | 32.77092 | -110.72384 | 31964 ft | 400 kts | 280° |
| 2026-05-05 15:04 | 32.79158 | -110.78534 | 31972 ft | 400 kts | 280° |
| 2026-05-05 15:05 | 32.82250 | -110.87723 | 31974 ft | 397 kts | 279° |
| 2026-05-05 15:06 | 32.84287 | -110.93824 | 31965 ft | 397 kts | 279° |
| 2026-05-05 15:06 | 32.86315 | -110.99927 | 31960 ft | 397 kts | 279° |
| 2026-05-05 15:07 | 32.88329 | -111.05989 | 31964 ft | 397 kts | 279° |
| 2026-05-05 15:07 | 32.90355 | -111.12097 | 31978 ft | 396 kts | 279° |
| 2026-05-05 15:08 | 32.92378 | -111.18211 | 31978 ft | 397 kts | 279° |
| 2026-05-05 15:08 | 32.94400 | -111.24321 | 31974 ft | 397 kts | 279° |
| 2026-05-05 15:09 | 32.96421 | -111.30429 | 31949 ft | 397 kts | 279° |
| 2026-05-05 15:09 | 32.98435 | -111.36549 | 31946 ft | 397 kts | 279° |
| 2026-05-05 15:10 | 33.00445 | -111.42678 | 31915 ft | 397 kts | 279° |
| 2026-05-05 15:10 | 33.02458 | -111.48812 | 31914 ft | 397 kts | 279° |
| 2026-05-05 15:11 | 33.04453 | -111.54896 | 31911 ft | 397 kts | 279° |
| 2026-05-05 15:11 | 33.06458 | -111.61026 | 31969 ft | 397 kts | 279° |
| 2026-05-05 15:12 | 33.08463 | -111.67159 | 31960 ft | 397 kts | 279° |
| 2026-05-05 15:12 | 33.10466 | -111.73286 | 31953 ft | 396 kts | 279° |
| 2026-05-05 15:13 | 33.12461 | -111.79420 | 31973 ft | 396 kts | 279° |
| 2026-05-05 15:13 | 33.14445 | -111.85546 | 31982 ft | 396 kts | 279° |
| 2026-05-05 15:14 | 33.16428 | -111.91687 | 31972 ft | 396 kts | 278° |
| 2026-05-05 15:14 | 33.18392 | -111.97770 | 31963 ft | 396 kts | 278° |
| 2026-05-05 15:15 | 33.20370 | -112.03904 | 31956 ft | 396 kts | 278° |
| 2026-05-05 15:15 | 33.22347 | -112.10039 | 31970 ft | 396 kts | 278° |
| 2026-05-05 15:16 | 33.24317 | -112.16164 | 31938 ft | 394 kts | 278° |
| 2026-05-05 15:16 | 33.26267 | -112.22254 | 31932 ft | 391 kts | 278° |
| 2026-05-05 15:17 | 33.28201 | -112.28333 | 31935 ft | 392 kts | 278° |
| 2026-05-05 15:17 | 33.30144 | -112.34431 | 31954 ft | 393 kts | 278° |
| 2026-05-05 15:18 | 33.32098 | -112.40540 | 31962 ft | 394 kts | 278° |
| 2026-05-05 15:18 | 33.34050 | -112.46666 | 31987 ft | 394 kts | 278° |
| 2026-05-05 15:19 | 33.35977 | -112.52750 | 31990 ft | 393 kts | 278° |
| 2026-05-05 15:19 | 33.37913 | -112.58874 | 32007 ft | 393 kts | 277° |
| 2026-05-05 15:20 | 33.39838 | -112.64959 | 31979 ft | 391 kts | 277° |
| 2026-05-05 15:20 | 33.41757 | -112.71048 | 31971 ft | 391 kts | 277° |
| 2026-05-05 15:21 | 33.43683 | -112.77154 | 31969 ft | 392 kts | 277° |
| 2026-05-05 15:21 | 33.45610 | -112.83260 | 31980 ft | 393 kts | 278° |
| 2026-05-05 15:22 | 33.47721 | -112.89344 | 31965 ft | 397 kts | 280° |
| 2026-05-05 15:22 | 33.49936 | -112.95366 | 31950 ft | 397 kts | 280° |
| 2026-05-05 15:23 | 33.52150 | -113.01429 | 31940 ft | 397 kts | 279° |
| 2026-05-05 15:23 | 33.54327 | -113.07509 | 31932 ft | 396 kts | 279° |
| 2026-05-05 15:24 | 33.56483 | -113.13577 | 31934 ft | 396 kts | 279° |
| 2026-05-05 15:24 | 33.58644 | -113.19667 | 31924 ft | 397 kts | 279° |
| 2026-05-05 15:25 | 33.60810 | -113.25776 | 31916 ft | 397 kts | 279° |
| 2026-05-05 15:25 | 33.62961 | -113.31838 | 31917 ft | 398 kts | 279° |
| 2026-05-05 15:26 | 33.65121 | -113.37949 | 31926 ft | 398 kts | 279° |
| 2026-05-05 15:26 | 33.67283 | -113.44074 | 32036 ft | 397 kts | 279° |
| 2026-05-05 15:27 | 33.69075 | -113.49159 | 32027 ft | 398 kts | 279° |
| 2026-05-05 15:27 | 33.71231 | -113.55290 | 32011 ft | 398 kts | 279° |
| 2026-05-05 15:28 | 33.73387 | -113.61427 | 31997 ft | 399 kts | 280° |
| 2026-05-05 15:28 | 33.75540 | -113.67582 | 31909 ft | 399 kts | 280° |
| 2026-05-05 15:29 | 33.77683 | -113.73700 | 31912 ft | 400 kts | 279° |
| 2026-05-05 15:29 | 33.79834 | -113.79855 | 31928 ft | 399 kts | 279° |
| 2026-05-05 15:30 | 33.81954 | -113.86019 | 31924 ft | 398 kts | 279° |
| 2026-05-05 15:30 | 33.84040 | -113.92182 | 31945 ft | 399 kts | 279° |
| 2026-05-05 15:31 | 33.86130 | -113.98415 | 31934 ft | 402 kts | 279° |
| 2026-05-05 15:31 | 33.88238 | -114.04615 | 31924 ft | 403 kts | 279° |
| 2026-05-05 15:32 | 33.90324 | -114.10881 | 31936 ft | 398 kts | 276° |
| 2026-05-05 15:32 | 33.91530 | -114.17249 | 31924 ft | 389 kts | 271° |
| 2026-05-05 15:33 | 33.92608 | -114.23640 | 31918 ft | 389 kts | 271° |
| 2026-05-05 15:33 | 33.93689 | -114.30030 | 31916 ft | 389 kts | 271° |
| 2026-05-05 15:34 | 33.94768 | -114.36387 | 31914 ft | 390 kts | 271° |
| 2026-05-05 15:34 | 33.95843 | -114.42787 | 31905 ft | 390 kts | 271° |
| 2026-05-05 15:35 | 33.96922 | -114.49226 | 31909 ft | 393 kts | 272° |
| 2026-05-05 15:35 | 33.98008 | -114.55718 | 31889 ft | 396 kts | 272° |
| 2026-05-05 15:36 | 33.99097 | -114.62250 | 31885 ft | 399 kts | 272° |
| 2026-05-05 15:36 | 34.00185 | -114.68813 | 31893 ft | 400 kts | 272° |
| 2026-05-05 15:37 | 34.01275 | -114.75394 | 31893 ft | 401 kts | 272° |
| 2026-05-05 15:37 | 34.02362 | -114.81991 | 31906 ft | 401 kts | 272° |
| 2026-05-05 15:38 | 34.03438 | -114.88547 | 31907 ft | 401 kts | 272° |
| 2026-05-05 15:38 | 34.04528 | -114.95143 | 31911 ft | 401 kts | 272° |
| 2026-05-05 15:39 | 34.05607 | -115.01745 | 31948 ft | 401 kts | 272° |
| 2026-05-05 15:39 | 34.06678 | -115.08370 | 31922 ft | 403 kts | 272° |
| 2026-05-05 15:40 | 34.07752 | -115.15024 | 31898 ft | 406 kts | 274° |
| 2026-05-05 15:40 | 34.08841 | -115.21733 | 31889 ft | 409 kts | 274° |
| 2026-05-05 15:41 | 34.09939 | -115.28485 | 31893 ft | 411 kts | 274° |
| 2026-05-05 15:41 | 34.11034 | -115.35266 | 31901 ft | 412 kts | 274° |
| 2026-05-05 15:42 | 34.12116 | -115.42032 | 31900 ft | 414 kts | 274° |
| 2026-05-05 15:42 | 34.13203 | -115.48868 | 31913 ft | 416 kts | 274° |
| 2026-05-05 15:43 | 34.14293 | -115.55720 | 31923 ft | 416 kts | 274° |
| 2026-05-05 15:43 | 34.15381 | -115.62570 | 31920 ft | 415 kts | 274° |
| 2026-05-05 15:44 | 34.16190 | -115.69446 | 31927 ft | 412 kts | 265° |
| 2026-05-05 15:44 | 34.15678 | -115.76288 | 31933 ft | 409 kts | 259° |
| 2026-05-05 15:45 | 34.15019 | -115.83120 | 31939 ft | 410 kts | 259° |
| 2026-05-05 15:45 | 34.14357 | -115.89974 | 31955 ft | 411 kts | 259° |
| 2026-05-05 15:46 | 34.13687 | -115.96841 | 31985 ft | 412 kts | 260° |
| 2026-05-05 15:46 | 34.13004 | -116.03736 | 31973 ft | 415 kts | 260° |
| 2026-05-05 15:47 | 34.12320 | -116.10678 | 31978 ft | 417 kts | 260° |
| 2026-05-05 15:47 | 34.11639 | -116.17607 | 31980 ft | 418 kts | 260° |
| 2026-05-05 15:48 | 34.10949 | -116.24590 | 31908 ft | 420 kts | 260° |
| 2026-05-05 15:48 | 34.10602 | -116.28078 | 31614 ft | 420 kts | 261° |
| 2026-05-05 15:48 | 34.10249 | -116.31587 | 31356 ft | 422 kts | 261° |
| 2026-05-05 15:48 | 34.09884 | -116.35111 | 30887 ft | 425 kts | 261° |
| 2026-05-05 15:49 | 34.09507 | -116.38669 | 30150 ft | 427 kts | 261° |
| 2026-05-05 15:49 | 34.09122 | -116.42232 | 29332 ft | 428 kts | 261° |
| 2026-05-05 15:49 | 34.08734 | -116.45808 | 28617 ft | 430 kts | 261° |
| 2026-05-05 15:49 | 34.08342 | -116.49396 | 27885 ft | 432 kts | 261° |
| 2026-05-05 15:50 | 34.07952 | -116.52968 | 27493 ft | 423 kts | 261° |
| 2026-05-05 15:50 | 34.07577 | -116.56427 | 27351 ft | 409 kts | 261° |
| 2026-05-05 15:50 | 34.07216 | -116.59781 | 27105 ft | 398 kts | 261° |
| 2026-05-05 15:50 | 34.06891 | -116.63036 | 26853 ft | 393 kts | 262° |
| 2026-05-05 15:51 | 34.06585 | -116.66344 | 26430 ft | 391 kts | 262° |
| 2026-05-05 15:51 | 34.06296 | -116.69593 | 25930 ft | 388 kts | 262° |
| 2026-05-05 15:51 | 34.06014 | -116.72776 | 25454 ft | 386 kts | 262° |
| 2026-05-05 15:51 | 34.05723 | -116.75985 | 24988 ft | 384 kts | 262° |
| 2026-05-05 15:52 | 34.05430 | -116.79178 | 24503 ft | 382 kts | 262° |
| 2026-05-05 15:52 | 34.05134 | -116.82355 | 24034 ft | 381 kts | 262° |
| 2026-05-05 15:52 | 34.04836 | -116.85532 | 23549 ft | 380 kts | 262° |
| 2026-05-05 15:52 | 34.04535 | -116.88697 | 23035 ft | 379 kts | 262° |
| 2026-05-05 15:53 | 34.04195 | -116.91844 | 22568 ft | 376 kts | 261° |
| 2026-05-05 15:53 | 34.03802 | -116.94960 | 22081 ft | 374 kts | 260° |
| 2026-05-05 15:53 | 34.03381 | -116.98044 | 21628 ft | 372 kts | 260° |
| 2026-05-05 15:53 | 34.02960 | -117.01064 | 21182 ft | 369 kts | 260° |
| 2026-05-05 15:54 | 34.02541 | -117.04101 | 20726 ft | 367 kts | 261° |
| 2026-05-05 15:54 | 34.02151 | -117.07142 | 20268 ft | 365 kts | 261° |
| 2026-05-05 15:54 | 34.01791 | -117.10161 | 19816 ft | 363 kts | 262° |
| 2026-05-05 15:54 | 34.01445 | -117.13168 | 19381 ft | 362 kts | 262° |
| 2026-05-05 15:55 | 34.01100 | -117.16178 | 18871 ft | 365 kts | 262° |
| 2026-05-05 15:55 | 34.00745 | -117.19241 | 18474 ft | 365 kts | 262° |
| 2026-05-05 15:55 | 34.00388 | -117.22219 | 18203 ft | 356 kts | 261° |
| 2026-05-05 15:55 | 34.00008 | -117.25121 | 17998 ft | 345 kts | 261° |
| 2026-05-05 15:56 | 33.99632 | -117.27953 | 17618 ft | 339 kts | 261° |
| 2026-05-05 15:56 | 33.99271 | -117.30751 | 17128 ft | 336 kts | 262° |
| 2026-05-05 15:56 | 33.98969 | -117.33543 | 16698 ft | 334 kts | 263° |
| 2026-05-05 15:56 | 33.98419 | -117.36253 | 16229 ft | 338 kts | 250° |
| 2026-05-05 15:57 | 33.97740 | -117.39113 | 15713 ft | 368 kts | 263° |
| 2026-05-05 15:57 | 33.97555 | -117.42170 | 15299 ft | 357 kts | 267° |
| 2026-05-05 15:57 | 33.97417 | -117.45059 | 15046 ft | 337 kts | 267° |
| 2026-05-05 15:57 | 33.97303 | -117.47815 | 14488 ft | 330 kts | 271° |
| 2026-05-05 15:58 | 33.97532 | -117.50534 | 13867 ft | 324 kts | 282° |
| 2026-05-05 15:58 | 33.98006 | -117.53176 | 13188 ft | 320 kts | 282° |
| 2026-05-05 15:58 | 33.98473 | -117.55785 | 12683 ft | 318 kts | 282° |
| 2026-05-05 15:58 | 33.98938 | -117.58395 | 12187 ft | 318 kts | 282° |
| 2026-05-05 15:59 | 33.99396 | -117.60995 | 11707 ft | 317 kts | 282° |
| 2026-05-05 15:59 | 33.99850 | -117.63579 | 11318 ft | 313 kts | 282° |
| 2026-05-05 15:59 | 34.00292 | -117.66091 | 11155 ft | 298 kts | 282° |
| 2026-05-05 15:59 | 34.00560 | -117.68487 | 11035 ft | 281 kts | 272° |
| 2026-05-05 16:00 | 34.00446 | -117.70802 | 10716 ft | 273 kts | 264° |
| 2026-05-05 16:00 | 34.00225 | -117.73059 | 10297 ft | 270 kts | 264° |
| 2026-05-05 16:00 | 34.00007 | -117.75299 | 10007 ft | 268 kts | 264° |
| 2026-05-05 16:00 | 33.99789 | -117.77520 | 9584 ft | 271 kts | 264° |
| 2026-05-05 16:01 | 33.99564 | -117.79776 | 9228 ft | 270 kts | 264° |
| 2026-05-05 16:01 | 33.99342 | -117.82014 | 8883 ft | 268 kts | 264° |
| 2026-05-05 16:01 | 33.99122 | -117.84247 | 8544 ft | 268 kts | 264° |
| 2026-05-05 16:01 | 33.98904 | -117.86469 | 8206 ft | 266 kts | 264° |
| 2026-05-05 16:02 | 33.98688 | -117.88679 | 7868 ft | 265 kts | 264° |
| 2026-05-05 16:02 | 33.98476 | -117.90876 | 7524 ft | 263 kts | 264° |
| 2026-05-05 16:02 | 33.98264 | -117.93059 | 7201 ft | 261 kts | 263° |
| 2026-05-05 16:02 | 33.98054 | -117.95222 | 6868 ft | 257 kts | 263° |
| 2026-05-05 16:03 | 33.97847 | -117.97328 | 6560 ft | 248 kts | 263° |
| 2026-05-05 16:03 | 33.97650 | -117.99331 | 6246 ft | 236 kts | 263° |
| 2026-05-05 16:03 | 33.97456 | -118.01253 | 5943 ft | 228 kts | 263° |
| 2026-05-05 16:03 | 33.97266 | -118.03113 | 5818 ft | 222 kts | 263° |
| 2026-05-05 16:04 | 33.97083 | -118.04947 | 5565 ft | 220 kts | 263° |
| 2026-05-05 16:04 | 33.96902 | -118.06773 | 5289 ft | 219 kts | 263° |
| 2026-05-05 16:04 | 33.96723 | -118.08576 | 4995 ft | 219 kts | 263° |
| 2026-05-05 16:04 | 33.96542 | -118.10396 | 4701 ft | 218 kts | 263° |
| 2026-05-05 16:05 | 33.96362 | -118.12200 | 4405 ft | 217 kts | 263° |
| 2026-05-05 16:05 | 33.96182 | -118.14005 | 4100 ft | 217 kts | 263° |
| 2026-05-05 16:05 | 33.96003 | -118.15802 | 3808 ft | 216 kts | 263° |
| 2026-05-05 16:05 | 33.95824 | -118.17590 | 3529 ft | 213 kts | 263° |
| 2026-05-05 16:06 | 33.95650 | -118.19321 | 3266 ft | 202 kts | 263° |
| 2026-05-05 16:06 | 33.95486 | -118.20956 | 2983 ft | 191 kts | 263° |
| 2026-05-05 16:06 | 33.95382 | -118.21995 | 2813 ft | 186 kts | 263° |
| 2026-05-05 16:06 | 33.95228 | -118.23525 | 2567 ft | 183 kts | 263° |
| 2026-05-05 16:07 | 33.95028 | -118.25515 | 2246 ft | 178 kts | 263° |
| 2026-05-05 16:07 | 33.94884 | -118.26944 | 2009 ft | 165 kts | 263° |
| 2026-05-05 16:07 | 33.94791 | -118.27863 | 1863 ft | 163 kts | 263° |
| 2026-05-05 16:07 | 33.94655 | -118.29207 | 1639 ft | 161 kts | 263° |
| 2026-05-05 16:08 | 33.94525 | -118.30492 | 1433 ft | 150 kts | 263° |
| 2026-05-05 16:08 | 33.94402 | -118.31705 | 1229 ft | 146 kts | 263° |
| 2026-05-05 16:08 | 33.94279 | -118.32907 | 1024 ft | 143 kts | 262° |
| 2026-05-05 16:08 | 33.94157 | -118.34092 | 852 ft | 140 kts | 263° |
| 2026-05-05 16:09 | 33.94046 | -118.35251 | 640 ft | 141 kts | 263° |
| 2026-05-05 16:09 | 33.93922 | -118.36411 | 460 ft | 139 kts | 264° |
| 2026-05-05 16:09 | 33.93812 | -118.37558 | 278 ft | 137 kts | 263° |
| 2026-05-05 16:09 | 33.93694 | -118.38680 | 108 ft | 127 kts | 263° |
| 2026-05-05 16:10 | 33.93602 | -118.39579 | 94 ft | 87 kts | 264° |
| 2026-05-05 16:10 | 33.93554 | -118.40091 | 96 ft | 31 kts | 266° |
| 2026-05-05 16:10 | 33.93603 | -118.40308 | 96 ft | 25 kts | 290° |
| 2026-05-05 16:10 | 33.93620 | -118.40504 | 97 ft | 18 kts | 262° |
| 2026-05-05 16:11 | 33.93606 | -118.40639 | 96 ft | 16 kts | 263° |
| 2026-05-05 16:11 | 33.93730 | -118.40906 | 94 ft | 12 kts | 353° |
| 2026-05-05 16:12 | 33.93817 | -118.40917 | 94 ft | 10 kts | 354° |
| 2026-05-05 16:12 | 33.93861 | -118.40946 | 94 ft | 6 kts | 290° |
| 2026-05-05 16:13 | 33.93894 | -118.41165 | 95 ft | 12 kts | 347° |
| 2026-05-05 16:13 | 33.93984 | -118.41179 | 94 ft | 14 kts | 353° |
| 2026-05-05 16:13 | 33.94083 | -118.41193 | 95 ft | 15 kts | 353° |
| 2026-05-05 16:14 | 33.94301 | -118.41225 | 93 ft | 17 kts | 353° |
| 2026-05-05 16:14 | 33.94548 | -118.41261 | 93 ft | 19 kts | 353° |
| 2026-05-05 16:15 | 33.94714 | -118.41185 | 94 ft | 15 kts | 73° |
| 2026-05-05 16:15 | 33.94746 | -118.40931 | 96 ft | 16 kts | 83° |
| 2026-05-05 16:16 | 33.94774 | -118.40644 | 94 ft | 18 kts | 83° |
| 2026-05-05 16:16 | 33.94803 | -118.40363 | 94 ft | 13 kts | 82° |
| 2026-05-05 16:17 | 33.94765 | -118.40223 | 93 ft | 9 kts | 110° |
| 2026-05-05 16:17 | 33.94756 | -118.40191 | 95 ft | 0 kts | 109° |